Time;durP1;ratioP1;P1;durP2;ratioP2;P2;SDS_P1;SDS_P2;PMS_P1;PMS_P2;Temp;Humidity;BMP_temperature;BMP_pressure;BME280_temperature;BME280_humidity;BME280_pressure;Samples;Min_cycle;Max_cycle;Signal;HPM_P1;HPM_P2
2023/06/11 00:00:01;;;;;;;8.55;7.85;;;24.00;67.00;;;;;;6213407;23;20074;-76
2023/06/11 00:02:32;;;;;;;7.88;7.28;;;24.00;67.30;;;;;;6240582;23;20709;-76
2023/06/11 00:05:07;;;;;;;8.23;7.53;;;23.90;67.40;;;;;;6239507;23;20076;-76
2023/06/11 00:07:34;;;;;;;9.15;7.93;;;23.90;67.50;;;;;;6213634;23;20159;-76
2023/06/11 00:10:01;;;;;;;8.50;7.65;;;23.90;67.80;;;;;;6240565;23;20027;-76
2023/06/11 00:12:26;;;;;;;8.45;7.63;;;23.80;67.80;;;;;;6241235;23;20008;-76
2023/06/11 00:14:52;;;;;;;8.65;7.00;;;23.80;67.90;;;;;;6241074;23;20004;-76
2023/06/11 00:17:17;;;;;;;8.82;8.05;;;23.70;68.00;;;;;;6214063;23;20008;-76
2023/06/11 00:19:43;;;;;;;10.88;7.85;;;23.70;68.10;;;;;;6241341;23;20370;-76
2023/06/11 00:22:08;;;;;;;9.00;7.50;;;23.70;68.50;;;;;;6241851;23;20001;-77
2023/06/11 00:24:34;;;;;;;8.48;7.68;;;23.60;68.60;;;;;;6241372;23;20418;-77
2023/06/11 00:27:01;;;;;;;7.63;6.97;;;23.60;68.80;;;;;;6241274;23;20004;-75
2023/06/11 00:29:27;;;;;;;12.15;8.88;;;23.60;69.20;;;;;;6240126;23;20027;-75
2023/06/11 00:31:53;;;;;;;9.18;7.32;;;23.60;69.50;;;;;;6214346;23;20083;-76
2023/06/11 00:34:19;;;;;;;9.02;8.32;;;23.50;69.50;;;;;;6214251;23;20340;-76
2023/06/11 00:36:45;;;;;;;9.57;7.95;;;23.50;69.70;;;;;;6242608;23;20032;-75
2023/06/11 00:39:12;;;;;;;9.45;8.18;;;23.50;69.90;;;;;;6243341;23;20452;-75
2023/06/11 00:41:38;;;;;;;11.50;8.35;;;23.60;69.90;;;;;;6243239;23;20003;-76
2023/06/11 00:44:05;;;;;;;8.82;8.07;;;23.50;70.10;;;;;;6215646;23;20095;-76
2023/06/11 00:46:31;;;;;;;9.27;8.38;;;23.50;70.10;;;;;;6216134;23;20019;-76
2023/06/11 00:48:58;;;;;;;9.10;8.20;;;23.40;70.20;;;;;;6216054;23;20068;-76
2023/06/11 00:51:25;;;;;;;11.18;8.35;;;23.40;70.30;;;;;;6242591;23;20006;-76
2023/06/11 00:53:52;;;;;;;10.27;8.80;;;23.40;71.00;;;;;;6242857;23;20031;-76
2023/06/11 00:56:19;;;;;;;9.02;7.97;;;23.40;70.60;;;;;;6242655;23;20032;-76
2023/06/11 00:58:45;;;;;;;8.88;8.10;;;23.40;70.80;;;;;;6242186;23;20070;-76
2023/06/11 01:01:15;;;;;;;9.80;8.73;;;23.30;70.90;;;;;;6242982;23;19996;-76
2023/06/11 01:03:41;;;;;;;10.43;9.07;;;23.30;71.10;;;;;;6242738;23;20000;-76
2023/06/11 01:06:17;;;;;;;9.15;8.25;;;23.30;71.30;;;;;;6216364;23;20008;-76
2023/06/11 01:08:44;;;;;;;8.70;7.40;;;23.20;71.40;;;;;;6242923;23;20008;-75
2023/06/11 01:11:17;;;;;;;10.73;9.73;;;23.20;71.50;;;;;;6242676;23;19996;-76
2023/06/11 01:13:43;;;;;;;11.05;8.68;;;23.20;71.80;;;;;;6241993;23;20000;-76
2023/06/11 01:16:17;;;;;;;11.75;9.48;;;23.20;72.00;;;;;;6242716;23;20015;-76
2023/06/11 01:18:53;;;;;;;8.60;7.63;;;23.10;72.10;;;;;;6242575;23;19996;-76
2023/06/11 01:21:24;;;;;;;10.85;8.10;;;23.10;72.20;;;;;;6242508;23;20001;-76
2023/06/11 01:24:09;;;;;;;11.32;9.65;;;23.10;72.50;;;;;;6216067;23;19997;-75
2023/06/11 01:27:04;;;;;;;9.35;8.50;;;23.00;72.70;;;;;;6242607;23;20373;-76
2023/06/11 01:29:30;;;;;;;10.13;9.13;;;23.00;72.90;;;;;;6242226;23;20019;-76
2023/06/11 01:31:59;;;;;;;11.55;8.82;;;22.90;72.90;;;;;;6215286;23;20335;-75
2023/06/11 01:34:25;;;;;;;9.88;8.98;;;22.90;73.20;;;;;;6242235;23;20019;-75
2023/06/11 01:36:51;;;;;;;10.27;9.27;;;22.90;73.40;;;;;;6242331;23;20004;-78
2023/06/11 01:39:16;;;;;;;10.40;9.38;;;22.80;73.50;;;;;;6242657;23;20004;-78
2023/06/11 01:41:42;;;;;;;12.20;10.02;;;22.80;73.60;;;;;;6214860;23;20004;-75
2023/06/11 01:44:07;;;;;;;11.88;10.63;;;22.70;73.70;;;;;;6242374;23;20037;-76
2023/06/11 01:46:33;;;;;;;10.90;10.00;;;22.70;73.80;;;;;;6216986;23;20008;-76
2023/06/11 01:48:58;;;;;;;9.85;8.88;;;22.70;74.00;;;;;;6215181;23;20001;-76
2023/06/11 01:51:24;;;;;;;9.48;8.57;;;22.60;74.00;;;;;;6242087;23;20062;-76
2023/06/11 01:53:51;;;;;;;9.98;8.98;;;22.60;74.20;;;;;;6242240;23;20001;-76
2023/06/11 01:56:16;;;;;;;11.13;9.38;;;22.60;75.00;;;;;;6241156;23;20000;-76
2023/06/11 01:58:45;;;;;;;12.98;9.32;;;22.50;74.50;;;;;;6242179;23;20008;-76
2023/06/11 02:01:10;;;;;;;10.63;9.70;;;22.50;74.60;;;;;;6242296;23;20003;-77
2023/06/11 02:03:36;;;;;;;11.43;8.88;;;22.40;74.80;;;;;;6242543;23;20022;-75
2023/06/11 02:06:02;;;;;;;11.23;9.25;;;22.40;74.80;;;;;;6215600;23;20004;-76
2023/06/11 02:08:27;;;;;;;14.73;8.82;;;22.30;75.00;;;;;;6242120;23;20008;-77
2023/06/11 02:10:53;;;;;;;11.00;9.90;;;22.30;75.30;;;;;;6241759;23;20354;-76
2023/06/11 02:13:19;;;;;;;9.98;9.05;;;22.30;75.50;;;;;;6241816;23;19999;-77
2023/06/11 02:15:44;;;;;;;10.48;9.65;;;22.20;75.70;;;;;;6215125;23;20039;-75
2023/06/11 02:18:10;;;;;;;10.00;9.20;;;22.20;75.80;;;;;;6241242;23;20008;-77
2023/06/11 02:20:36;;;;;;;13.88;10.68;;;22.20;75.90;;;;;;6242285;23;20068;-77
2023/06/11 02:23:03;;;;;;;10.75;9.73;;;22.10;76.20;;;;;;6215257;23;20000;-77
2023/06/11 02:25:29;;;;;;;9.95;9.15;;;22.00;76.40;;;;;;6214414;23;20004;-75
2023/06/11 02:27:54;;;;;;;10.98;9.90;;;22.00;76.70;;;;;;6241219;23;20346;-75
2023/06/11 02:30:20;;;;;;;9.50;8.55;;;22.00;76.80;;;;;;6241883;23;20063;-76
2023/06/11 02:32:46;;;;;;;10.35;9.32;;;22.00;76.80;;;;;;6242247;23;20055;-76
2023/06/11 02:35:12;;;;;;;10.38;9.48;;;22.00;77.20;;;;;;6214904;23;19996;-76
2023/06/11 02:37:37;;;;;;;10.52;9.63;;;21.90;77.00;;;;;;6241937;23;20003;-76
2023/06/11 02:40:03;;;;;;;12.13;9.80;;;21.80;77.20;;;;;;6241539;23;20004;-75
2023/06/11 02:42:29;;;;;;;10.93;9.20;;;21.80;77.40;;;;;;6215126;23;20039;-76
2023/06/11 02:44:55;;;;;;;10.63;9.68;;;21.80;77.40;;;;;;6215187;23;20000;-76
2023/06/11 02:47:20;;;;;;;10.73;9.70;;;21.80;77.40;;;;;;6241806;23;20420;-77
2023/06/11 02:49:46;;;;;;;12.73;9.48;;;21.80;77.50;;;;;;6242117;23;19996;-75
2023/06/11 02:52:11;;;;;;;10.38;9.48;;;21.70;77.70;;;;;;6215192;23;20000;-75
2023/06/11 02:54:37;;;;;;;11.15;10.02;;;21.70;77.60;;;;;;6241873;23;20050;-76
2023/06/11 02:57:02;;;;;;;10.30;9.40;;;21.70;77.70;;;;;;6214958;23;20019;-76
2023/06/11 02:59:28;;;;;;;10.88;9.88;;;21.60;77.70;;;;;;6214757;23;20438;-76
2023/06/11 03:01:54;;;;;;;12.13;9.82;;;21.60;77.70;;;;;;6241832;23;20006;-76
2023/06/11 03:04:20;;;;;;;9.90;9.00;;;21.60;77.80;;;;;;6214600;23;20375;-76
2023/06/11 03:06:45;;;;;;;11.10;9.48;;;21.60;77.70;;;;;;6241662;23;20058;-76
2023/06/11 03:09:11;;;;;;;11.15;9.10;;;21.60;77.80;;;;;;6241090;23;20357;-76
2023/06/11 03:11:37;;;;;;;10.82;9.80;;;21.50;77.80;;;;;;6242575;23;20000;-77
2023/06/11 03:14:02;;;;;;;10.43;9.40;;;21.50;78.00;;;;;;6242611;23;20004;-77
2023/06/11 03:16:28;;;;;;;10.52;9.52;;;21.50;77.90;;;;;;6241375;23;20047;-75
2023/06/11 03:18:53;;;;;;;10.60;9.57;;;21.50;77.90;;;;;;6241514;23;20130;-76
2023/06/11 03:21:19;;;;;;;10.52;9.57;;;21.50;78.00;;;;;;6241195;23;20138;-77
2023/06/11 03:23:45;;;;;;;10.05;9.15;;;21.50;78.10;;;;;;6241043;23;20401;-77
2023/06/11 03:26:10;;;;;;;9.95;8.95;;;21.40;78.00;;;;;;6241299;23;20000;-76
2023/06/11 03:28:36;;;;;;;10.82;9.93;;;21.40;78.10;;;;;;6214598;23;20008;-77
2023/06/11 03:31:02;;;;;;;10.68;9.68;;;21.40;78.90;;;;;;6241557;23;20000;-78
2023/06/11 03:33:27;;;;;;;9.55;8.63;;;21.40;78.20;;;;;;6241265;23;20004;-77
2023/06/11 03:35:53;;;;;;;10.85;9.82;;;21.30;78.20;;;;;;6241383;23;20337;-76
2023/06/11 03:38:19;;;;;;;11.02;10.02;;;21.30;78.30;;;;;;6240946;23;20067;-78
2023/06/11 03:40:44;;;;;;;9.93;9.13;;;21.20;78.30;;;;;;6214328;23;20004;-77
2023/06/11 03:43:10;;;;;;;10.70;9.32;;;21.30;78.40;;;;;;6214540;23;20047;-76
2023/06/11 03:45:35;;;;;;;9.77;8.93;;;21.30;78.50;;;;;;6241358;23;20036;-76
2023/06/11 03:48:04;;;;;;;10.82;9.82;;;21.20;78.40;;;;;;6241399;23;20003;-77
2023/06/11 03:50:29;;;;;;;10.63;9.45;;;21.20;78.40;;;;;;6240499;23;20008;-76
2023/06/11 03:52:55;;;;;;;9.80;9.00;;;21.20;78.40;;;;;;6239875;23;20370;-77
2023/06/11 03:55:20;;;;;;;11.38;10.23;;;21.20;78.40;;;;;;6213117;23;20007;-76
2023/06/11 03:57:46;;;;;;;9.32;8.45;;;21.20;78.60;;;;;;6239797;23;20387;-77
2023/06/11 04:00:12;;;;;;;10.57;9.77;;;21.20;78.70;;;;;;6240060;23;20020;-76
2023/06/11 04:02:38;;;;;;;8.52;7.82;;;21.20;78.70;;;;;;6241342;23;20011;-77
2023/06/11 04:05:04;;;;;;;8.85;7.55;;;21.20;78.70;;;;;;6241428;23;19996;-76
2023/06/11 04:07:29;;;;;;;10.30;9.50;;;21.10;78.70;;;;;;6240909;23;20026;-76
2023/06/11 04:09:55;;;;;;;10.68;9.25;;;21.20;78.80;;;;;;6241466;23;20091;-77
2023/06/11 04:12:20;;;;;;;10.00;8.98;;;21.10;78.80;;;;;;6214284;23;20057;-77
2023/06/11 04:14:47;;;;;;;12.00;9.65;;;21.20;78.90;;;;;;6240969;23;20079;-77
2023/06/11 04:17:12;;;;;;;10.27;9.15;;;21.20;78.90;;;;;;6241170;23;20016;-77
2023/06/11 04:19:38;;;;;;;10.60;9.70;;;21.20;78.90;;;;;;6241112;23;20020;-77
2023/06/11 04:22:04;;;;;;;10.02;9.13;;;21.20;79.00;;;;;;6214006;23;20371;-77
2023/06/11 04:24:29;;;;;;;10.63;9.52;;;21.20;79.00;;;;;;6241338;23;20330;-77
2023/06/11 04:26:56;;;;;;;10.10;9.15;;;21.20;79.00;;;;;;6241359;23;20115;-77
2023/06/11 04:29:23;;;;;;;9.65;8.80;;;21.20;79.00;;;;;;6240922;23;20701;-77
2023/06/11 04:31:50;;;;;;;10.25;9.35;;;21.20;79.20;;;;;;6241337;23;20000;-77
2023/06/11 04:34:17;;;;;;;10.38;9.10;;;21.20;79.20;;;;;;6241166;23;20076;-77
2023/06/11 04:36:46;;;;;;;10.52;9.50;;;21.20;79.30;;;;;;6240528;23;20012;-77
2023/06/11 04:39:12;;;;;;;9.60;8.80;;;21.20;79.30;;;;;;6240995;23;20004;-77
2023/06/11 04:41:37;;;;;;;10.45;9.48;;;21.20;79.50;;;;;;6241098;23;20478;-76
2023/06/11 04:44:03;;;;;;;11.18;10.05;;;21.30;79.50;;;;;;6241547;23;20334;-76
2023/06/11 04:46:29;;;;;;;9.25;8.48;;;21.30;79.50;;;;;;6241271;23;20090;-76
2023/06/11 04:48:59;;;;;;;11.73;9.73;;;21.30;79.70;;;;;;6241315;23;20008;-76
2023/06/11 04:51:28;;;;;;;10.68;9.77;;;21.30;79.60;;;;;;6240844;23;20000;-76
2023/06/11 04:53:57;;;;;;;10.27;9.48;;;21.30;79.40;;;;;;6241597;23;20008;-77
2023/06/11 04:56:23;;;;;;;10.40;9.32;;;21.30;79.40;;;;;;6240871;23;20008;-75
2023/06/11 04:58:49;;;;;;;10.50;9.50;;;21.40;79.30;;;;;;6241433;23;20038;-76
2023/06/11 05:01:15;;;;;;;10.05;9.15;;;21.40;79.30;;;;;;6240744;23;20019;-76
2023/06/11 05:03:41;;;;;;;8.98;8.27;;;21.40;79.30;;;;;;6241142;23;20031;-76
2023/06/11 05:06:08;;;;;;;10.88;9.88;;;21.40;79.30;;;;;;6213576;23;20090;-76
2023/06/11 05:08:34;;;;;;;10.70;9.50;;;21.50;79.30;;;;;;6241139;23;20364;-76
2023/06/11 05:11:00;;;;;;;10.55;9.70;;;21.60;79.10;;;;;;6240781;23;20005;-76
2023/06/11 05:13:26;;;;;;;9.27;8.48;;;21.60;79.00;;;;;;6240842;23;20027;-76
2023/06/11 05:15:56;;;;;;;7.72;7.05;;;21.60;78.80;;;;;;6213992;23;19996;-77
2023/06/11 05:18:23;;;;;;;10.98;8.98;;;21.70;78.80;;;;;;6240760;23;20330;-77
2023/06/11 05:20:49;;;;;;;9.77;8.95;;;21.70;78.80;;;;;;6240407;23;19997;-76
2023/06/11 05:23:18;;;;;;;9.80;8.85;;;21.80;79.00;;;;;;6242701;23;20004;-76
2023/06/11 05:25:47;;;;;;;9.95;9.05;;;21.80;78.60;;;;;;6242660;23;20071;-76
2023/06/11 05:28:14;;;;;;;10.15;9.05;;;21.90;78.50;;;;;;6215485;23;20058;-77
2023/06/11 05:30:43;;;;;;;10.73;9.43;;;21.80;78.50;;;;;;6242720;23;20000;-76
2023/06/11 05:33:10;;;;;;;11.40;10.20;;;21.90;78.40;;;;;;6242908;23;20000;-76
2023/06/11 05:35:36;;;;;;;10.18;9.32;;;22.00;78.20;;;;;;6242298;23;20397;-77
2023/06/11 05:38:03;;;;;;;9.85;9.00;;;22.00;78.10;;;;;;6242674;23;19997;-76
2023/06/11 05:40:29;;;;;;;12.00;10.90;;;22.10;78.10;;;;;;6215718;23;20441;-76
2023/06/11 05:42:55;;;;;;;10.63;9.55;;;22.10;78.20;;;;;;6242838;23;20047;-77
2023/06/11 05:45:21;;;;;;;10.27;9.23;;;22.20;78.30;;;;;;6242338;23;20414;-76
2023/06/11 05:47:46;;;;;;;9.82;8.95;;;22.20;78.20;;;;;;6242668;23;20031;-76
2023/06/11 05:50:12;;;;;;;11.63;10.43;;;22.30;78.00;;;;;;6214850;23;20138;-76
2023/06/11 05:52:37;;;;;;;10.05;9.10;;;22.30;78.00;;;;;;6215589;23;20206;-77
2023/06/11 05:55:04;;;;;;;10.82;10.02;;;22.40;78.20;;;;;;6215669;23;20046;-77
2023/06/11 05:57:29;;;;;;;11.18;10.07;;;22.40;78.20;;;;;;6242270;23;20007;-77
2023/06/11 05:59:55;;;;;;;9.32;8.25;;;22.50;78.20;;;;;;6241735;23;19992;-76
2023/06/11 06:02:22;;;;;;;11.43;10.32;;;22.50;78.00;;;;;;6242189;23;20085;-76
2023/06/11 06:04:48;;;;;;;9.88;9.18;;;22.50;77.70;;;;;;6241632;23;20000;-76
2023/06/11 06:07:18;;;;;;;9.80;9.00;;;22.60;77.60;;;;;;6215216;23;20015;-76
2023/06/11 06:09:43;;;;;;;10.13;9.32;;;22.60;77.40;;;;;;6242063;23;20015;-76
2023/06/11 06:12:10;;;;;;;13.50;10.25;;;22.70;77.50;;;;;;6215067;23;20008;-76
2023/06/11 06:14:36;;;;;;;9.70;9.00;;;22.70;77.30;;;;;;6242526;23;20027;-77
2023/06/11 06:17:01;;;;;;;10.52;9.68;;;22.70;77.50;;;;;;6215400;23;20441;-76
2023/06/11 06:19:27;;;;;;;10.68;9.65;;;22.80;77.70;;;;;;6241731;23;20050;-76
2023/06/11 06:21:52;;;;;;;11.48;10.52;;;22.80;77.80;;;;;;6242240;23;20109;-76
2023/06/11 06:24:18;;;;;;;11.60;10.60;;;22.90;78.00;;;;;;6242058;23;20283;-77
2023/06/11 06:26:43;;;;;;;11.05;10.05;;;22.90;78.10;;;;;;6242139;23;20008;-77
2023/06/11 06:29:12;;;;;;;11.38;10.20;;;22.90;77.70;;;;;;6242150;23;20008;-76
2023/06/11 06:31:41;;;;;;;13.00;10.25;;;23.00;77.90;;;;;;6242043;23;20422;-76
2023/06/11 06:34:07;;;;;;;10.48;9.20;;;23.00;77.70;;;;;;6242084;23;20004;-76
2023/06/11 06:36:35;;;;;;;11.32;10.15;;;23.10;77.70;;;;;;6242130;23;20019;-76
2023/06/11 06:39:01;;;;;;;11.73;10.40;;;23.20;77.90;;;;;;6242184;23;20326;-76
2023/06/11 06:41:27;;;;;;;10.20;9.30;;;23.30;77.80;;;;;;6241875;23;19996;-76
2023/06/11 06:43:53;;;;;;;11.05;10.15;;;23.30;77.90;;;;;;6241741;23;20007;-77
2023/06/11 06:46:19;;;;;;;10.23;9.32;;;23.40;77.70;;;;;;6241447;23;20456;-77
2023/06/11 06:48:45;;;;;;;11.07;10.05;;;23.40;77.80;;;;;;6242200;23;20064;-77
2023/06/11 06:51:10;;;;;;;10.05;9.18;;;23.50;78.00;;;;;;6241751;23;20004;-76
2023/06/11 06:53:36;;;;;;;9.40;8.60;;;23.60;77.50;;;;;;6243273;23;20003;-76
2023/06/11 06:56:05;;;;;;;10.40;9.50;;;23.70;77.60;;;;;;6242132;23;20000;-77
2023/06/11 06:58:32;;;;;;;9.73;8.93;;;23.70;77.20;;;;;;6241852;23;20438;-77
2023/06/11 07:00:57;;;;;;;10.88;9.85;;;23.80;76.70;;;;;;6241440;23;20004;-78
2023/06/11 07:03:23;;;;;;;10.57;9.55;;;23.80;76.50;;;;;;6215495;23;20062;-78
2023/06/11 07:05:49;;;;;;;10.88;9.05;;;23.90;76.50;;;;;;6242124;23;20006;-77
2023/06/11 07:08:14;;;;;;;8.68;8.00;;;24.00;76.70;;;;;;6241773;23;20000;-77
2023/06/11 07:10:50;;;;;;;10.65;8.98;;;24.10;76.50;;;;;;6242063;23;19996;-77
2023/06/11 07:13:15;;;;;;;10.50;9.40;;;24.20;76.60;;;;;;6241650;23;20107;-77
2023/06/11 07:15:41;;;;;;;9.15;8.35;;;24.30;76.50;;;;;;6241251;23;20082;-77
2023/06/11 07:18:07;;;;;;;8.55;7.75;;;24.30;76.30;;;;;;6241509;23;20494;-78
2023/06/11 07:20:32;;;;;;;9.15;8.32;;;24.40;76.40;;;;;;6241644;23;20007;-78
2023/06/11 07:23:01;;;;;;;8.77;7.60;;;24.50;76.30;;;;;;6241151;23;20008;-77
2023/06/11 07:25:31;;;;;;;10.27;9.32;;;24.60;76.00;;;;;;6241476;23;20098;-78
2023/06/11 07:28:01;;;;;;;9.73;8.93;;;24.60;75.70;;;;;;6241408;23;20020;-76
2023/06/11 07:30:31;;;;;;;11.25;9.50;;;24.70;75.90;;;;;;6240704;23;20438;-77
2023/06/11 07:32:57;;;;;;;10.93;8.70;;;24.80;75.60;;;;;;6241490;23;20000;-77
2023/06/11 07:35:23;;;;;;;11.13;9.27;;;24.90;75.60;;;;;;6214446;23;20533;-77
2023/06/11 07:37:49;;;;;;;10.88;9.88;;;25.00;75.60;;;;;;6241267;23;20004;-77
2023/06/11 07:40:15;;;;;;;10.75;9.35;;;25.10;75.10;;;;;;6241468;23;20326;-76
2023/06/11 07:42:45;;;;;;;8.57;7.82;;;25.20;75.10;;;;;;6241255;23;20398;-77
2023/06/11 07:45:12;;;;;;;9.15;8.48;;;25.30;74.80;;;;;;6240075;23;20000;-76
2023/06/11 07:47:38;;;;;;;9.05;8.25;;;25.40;74.80;;;;;;6241482;23;20015;-76
2023/06/11 07:50:04;;;;;;;9.77;9.07;;;25.50;74.60;;;;;;6241657;23;20000;-77
2023/06/11 07:52:30;;;;;;;9.57;8.77;;;25.50;74.50;;;;;;6241359;23;20087;-76
2023/06/11 07:54:56;;;;;;;9.70;8.75;;;25.60;74.50;;;;;;6241112;23;20085;-77
2023/06/11 07:57:21;;;;;;;9.48;8.63;;;25.70;74.30;;;;;;6213750;23;20004;-76
2023/06/11 07:59:47;;;;;;;10.45;8.93;;;25.80;74.30;;;;;;6240662;23;20485;-77
2023/06/11 08:02:14;;;;;;;9.90;9.20;;;25.90;74.00;;;;;;6240819;23;20010;-76
2023/06/11 08:04:40;;;;;;;10.00;8.98;;;26.00;73.90;;;;;;6241060;23;20054;-78
2023/06/11 08:07:06;;;;;;;10.10;9.00;;;26.10;73.50;;;;;;6241384;23;19996;-77
2023/06/11 08:09:35;;;;;;;10.75;9.85;;;26.20;73.40;;;;;;6214234;23;20402;-77
2023/06/11 08:12:01;;;;;;;11.45;9.23;;;26.30;73.00;;;;;;6214422;23;20333;-76
2023/06/11 08:14:27;;;;;;;8.57;7.88;;;26.40;72.90;;;;;;6240397;23;20007;-76
2023/06/11 08:16:52;;;;;;;10.82;9.73;;;26.50;73.40;;;;;;6241141;23;20004;-76
2023/06/11 08:19:18;;;;;;;9.55;8.60;;;26.50;72.40;;;;;;6241007;23;20001;-77
2023/06/11 08:21:43;;;;;;;10.35;9.27;;;26.60;72.10;;;;;;6241395;23;19996;-76
2023/06/11 08:24:10;;;;;;;9.50;8.70;;;26.70;72.20;;;;;;6241384;23;19999;-77
2023/06/11 08:26:36;;;;;;;9.25;8.55;;;26.80;72.00;;;;;;6214539;23;20004;-76
2023/06/11 08:29:02;;;;;;;9.15;8.25;;;26.90;72.00;;;;;;6240560;23;20081;-77
2023/06/11 08:31:28;;;;;;;7.80;7.10;;;27.00;71.70;;;;;;6241056;23;20030;-76
2023/06/11 08:33:53;;;;;;;9.40;8.60;;;27.10;71.90;;;;;;6241907;23;20322;-77
2023/06/11 08:36:20;;;;;;;8.45;7.70;;;27.20;71.30;;;;;;6241421;23;20028;-77
2023/06/11 08:38:46;;;;;;;8.40;7.60;;;27.30;71.40;;;;;;6241233;23;20008;-77
2023/06/11 08:41:12;;;;;;;8.18;7.47;;;27.40;70.80;;;;;;6241084;23;20000;-76
2023/06/11 08:43:38;;;;;;;8.07;7.28;;;27.50;69.90;;;;;;6240208;23;20675;-77
2023/06/11 08:46:07;;;;;;;8.80;8.13;;;27.50;70.00;;;;;;6240719;23;19996;-77
2023/06/11 08:48:36;;;;;;;8.00;7.25;;;27.50;69.90;;;;;;6241186;23;20054;-76
2023/06/11 08:51:03;;;;;;;9.90;7.55;;;27.70;69.90;;;;;;6214409;23;20026;-77
2023/06/11 08:53:30;;;;;;;8.38;7.68;;;27.70;69.20;;;;;;6240985;23;20102;-77
2023/06/11 08:55:55;;;;;;;6.78;6.28;;;27.70;69.30;;;;;;6241040;23;20553;-76
2023/06/11 08:58:22;;;;;;;7.82;7.18;;;27.90;69.50;;;;;;6242109;23;20088;-77
2023/06/11 09:00:48;;;;;;;8.80;7.57;;;28.00;69.10;;;;;;6242588;23;20007;-76
2023/06/11 09:03:15;;;;;;;8.13;7.40;;;28.00;68.70;;;;;;6242763;23;20367;-75
2023/06/11 09:05:41;;;;;;;8.35;7.75;;;28.10;68.40;;;;;;6242855;23;20001;-77
2023/06/11 09:08:08;;;;;;;10.85;7.43;;;28.20;68.30;;;;;;6243099;23;20349;-77
2023/06/11 09:10:33;;;;;;;8.32;7.60;;;28.30;68.40;;;;;;6242949;23;20075;-76
2023/06/11 09:13:00;;;;;;;9.40;8.43;;;28.30;68.10;;;;;;6242082;23;20027;-77
2023/06/11 09:15:26;;;;;;;8.60;7.80;;;28.40;67.60;;;;;;6215775;23;20461;-77
2023/06/11 09:17:52;;;;;;;8.60;7.80;;;28.40;68.30;;;;;;6243042;23;20000;-76
2023/06/11 09:20:19;;;;;;;9.20;7.85;;;28.40;67.50;;;;;;6242149;23;20000;-76
2023/06/11 09:22:45;;;;;;;8.00;7.38;;;28.40;67.30;;;;;;6242679;23;20000;-76
2023/06/11 09:25:17;;;;;;;8.55;7.78;;;28.40;67.90;;;;;;6215836;23;20000;-76
2023/06/11 09:27:47;;;;;;;8.32;7.50;;;28.50;67.30;;;;;;6241966;23;20011;-76
2023/06/11 09:30:19;;;;;;;13.48;8.63;;;28.50;67.60;;;;;;6242337;23;20031;-76
2023/06/11 09:32:47;;;;;;;7.80;7.20;;;28.50;67.00;;;;;;6242276;23;20433;-77
2023/06/11 09:35:13;;;;;;;8.23;7.43;;;28.60;66.50;;;;;;6240643;23;20430;-77
2023/06/11 09:37:52;;;;;;;8.07;7.47;;;28.60;66.60;;;;;;6242053;23;20000;-77
2023/06/11 09:40:20;;;;;;;8.65;7.85;;;28.70;66.80;;;;;;6242073;23;20000;-77
2023/06/11 09:42:47;;;;;;;7.75;7.05;;;28.70;67.00;;;;;;6242785;23;20004;-76
2023/06/11 09:45:19;;;;;;;8.32;7.63;;;28.80;66.50;;;;;;6242168;23;20000;-76
2023/06/11 09:47:46;;;;;;;7.72;7.13;;;28.80;66.00;;;;;;6242631;23;20008;-76
2023/06/11 09:50:16;;;;;;;7.60;7.00;;;28.90;66.10;;;;;;6242389;23;20054;-77
2023/06/11 09:52:43;;;;;;;7.75;6.97;;;29.00;66.30;;;;;;6215419;23;20007;-76
2023/06/11 09:55:10;;;;;;;8.32;7.53;;;29.00;66.10;;;;;;6215277;23;20008;-76
2023/06/11 09:57:38;;;;;;;8.65;7.82;;;29.10;65.70;;;;;;6242545;23;20010;-76
2023/06/11 10:00:11;;;;;;;7.75;6.90;;;29.10;65.40;;;;;;6242485;23;20004;-76
2023/06/11 10:02:39;;;;;;;8.48;7.68;;;29.10;65.40;;;;;;6242499;23;20007;-76
2023/06/11 10:05:06;;;;;;;7.93;7.30;;;29.20;65.40;;;;;;6242567;23;19997;-76
2023/06/11 10:07:55;;;;;;;7.97;7.22;;;29.30;65.10;;;;;;6215583;23;20440;-77
2023/06/11 10:10:23;;;;;;;7.07;6.47;;;29.30;64.70;;;;;;6241741;23;20330;-76
2023/06/11 10:12:52;;;;;;;7.75;7.15;;;29.30;64.80;;;;;;6243114;23;20315;-76
2023/06/11 10:15:24;;;;;;;7.97;7.28;;;29.40;64.50;;;;;;6214883;23;20004;-77
2023/06/11 10:17:52;;;;;;;9.35;6.50;;;29.40;64.10;;;;;;6242170;23;20056;-78
2023/06/11 10:20:27;;;;;;;8.70;7.43;;;29.40;64.30;;;;;;6242289;23;20000;-77
2023/06/11 10:23:10;;;;;;;6.60;6.00;;;29.50;62.80;;;;;;6242339;23;20016;-78
2023/06/11 10:25:38;;;;;;;7.47;6.65;;;29.50;62.60;;;;;;6242573;23;20046;-75
2023/06/11 10:28:04;;;;;;;7.65;6.22;;;29.40;62.70;;;;;;6215814;23;20015;-76
2023/06/11 10:30:30;;;;;;;7.72;6.30;;;29.50;63.30;;;;;;6242628;23;20406;-74
2023/06/11 10:32:59;;;;;;;7.80;7.13;;;29.50;62.70;;;;;;6242976;23;20005;-75
2023/06/11 10:35:28;;;;;;;7.80;5.80;;;29.60;62.80;;;;;;6242598;23;19993;-74
2023/06/11 10:38:06;;;;;;;6.40;5.80;;;29.70;62.60;;;;;;6242826;23;20111;-75
2023/06/11 10:40:36;;;;;;;7.38;5.90;;;29.70;61.70;;;;;;6243045;23;20015;-75
2023/06/11 10:43:11;;;;;;;7.20;6.50;;;29.80;61.80;;;;;;6242872;23;20073;-75
2023/06/11 10:45:38;;;;;;;6.72;6.13;;;29.80;61.50;;;;;;6242897;23;20642;-75
2023/06/11 10:48:05;;;;;;;7.20;6.60;;;29.80;61.50;;;;;;6242620;23;20005;-80
2023/06/11 10:50:31;;;;;;;6.90;6.20;;;29.80;61.30;;;;;;6215290;23;20008;-76
2023/06/11 10:53:01;;;;;;;10.48;7.10;;;29.80;61.70;;;;;;6241802;23;20422;-76
2023/06/11 10:55:29;;;;;;;6.20;5.60;;;29.80;61.00;;;;;;6242446;23;20034;-76
2023/06/11 10:57:56;;;;;;;7.70;5.45;;;29.80;60.90;;;;;;6215448;23;20004;-76
2023/06/11 11:00:22;;;;;;;6.10;5.60;;;29.80;60.60;;;;;;6242104;23;20329;-76
2023/06/11 11:02:48;;;;;;;6.20;4.88;;;29.90;60.90;;;;;;6242460;23;20063;-76
2023/06/11 11:05:14;;;;;;;5.30;4.90;;;29.90;60.40;;;;;;6242044;23;20003;-76
2023/06/11 11:07:44;;;;;;;4.82;4.43;;;29.90;59.50;;;;;;6241804;23;19996;-76
2023/06/11 11:10:11;;;;;;;8.57;4.45;;;29.90;59.00;;;;;;6242908;23;20322;-76
2023/06/11 11:12:45;;;;;;;5.90;4.53;;;29.90;59.20;;;;;;6242155;23;20008;-76
2023/06/11 11:15:12;;;;;;;5.32;4.72;;;30.00;59.10;;;;;;6242286;23;20387;-75
2023/06/11 11:17:42;;;;;;;6.13;4.18;;;30.00;59.20;;;;;;6241773;23;20012;-76
2023/06/11 11:20:17;;;;;;;4.85;4.45;;;30.00;58.80;;;;;;6241670;23;19997;-76
2023/06/11 11:22:52;;;;;;;4.68;4.25;;;30.10;59.20;;;;;;6241555;23;20067;-76
2023/06/11 11:25:24;;;;;;;4.30;4.00;;;30.10;60.00;;;;;;6241664;23;20000;-76
2023/06/11 11:27:50;;;;;;;4.95;4.55;;;30.20;57.70;;;;;;6241658;23;20042;-76
2023/06/11 11:30:17;;;;;;;4.50;4.20;;;30.30;55.80;;;;;;6241764;23;20008;-76
2023/06/11 11:32:43;;;;;;;5.60;4.43;;;30.20;55.40;;;;;;6241749;23;20028;-76
2023/06/11 11:35:11;;;;;;;4.90;4.28;;;30.20;55.50;;;;;;6242146;23;20550;-76
2023/06/11 11:37:37;;;;;;;7.03;4.28;;;30.20;55.50;;;;;;6241082;23;20008;-75
2023/06/11 11:40:06;;;;;;;6.03;5.18;;;30.20;55.80;;;;;;6241972;23;20400;-76
2023/06/11 11:42:43;;;;;;;7.78;4.90;;;30.30;56.50;;;;;;6241998;23;20000;-76
2023/06/11 11:45:14;;;;;;;6.60;4.78;;;30.40;57.00;;;;;;6242033;23;20000;-76
2023/06/11 11:47:44;;;;;;;5.53;4.88;;;30.50;56.50;;;;;;6241993;23;20000;-77
2023/06/11 11:50:27;;;;;;;4.72;4.32;;;30.50;55.80;;;;;;6241862;23;20032;-76
2023/06/11 11:53:13;;;;;;;4.95;4.50;;;30.50;55.70;;;;;;6241476;23;20054;-76
2023/06/11 11:55:43;;;;;;;9.18;4.57;;;30.60;55.50;;;;;;6241954;23;19996;-75
2023/06/11 11:58:15;;;;;;;4.72;4.20;;;30.60;55.30;;;;;;6241873;23;20008;-76
2023/06/11 12:00:50;;;;;;;4.75;4.32;;;30.60;55.30;;;;;;6241777;23;20050;-75
2023/06/11 12:03:20;;;;;;;4.72;4.25;;;30.60;55.20;;;;;;6241300;23;20004;-75
2023/06/11 12:06:02;;;;;;;5.18;4.65;;;30.60;55.00;;;;;;6241147;23;20027;-74
2023/06/11 12:08:30;;;;;;;5.03;4.53;;;30.60;54.40;;;;;;6241466;23;20033;-75
2023/06/11 12:10:57;;;;;;;5.47;4.97;;;30.60;54.80;;;;;;6241738;23;19996;-75
2023/06/11 12:13:22;;;;;;;5.18;4.60;;;30.70;54.90;;;;;;6241349;23;20054;-74
2023/06/11 12:15:48;;;;;;;5.30;4.78;;;30.70;54.90;;;;;;6241753;23;20000;-74
2023/06/11 12:18:14;;;;;;;5.05;4.45;;;30.70;54.80;;;;;;6241057;23;20087;-73
2023/06/11 12:20:40;;;;;;;6.07;4.45;;;30.70;54.30;;;;;;6241026;23;20019;-73
2023/06/11 12:23:05;;;;;;;8.48;5.03;;;30.70;54.60;;;;;;6241583;23;20000;-74
2023/06/11 12:25:32;;;;;;;5.05;4.65;;;30.60;54.20;;;;;;6241748;23;20314;-73
2023/06/11 12:27:58;;;;;;;4.65;4.00;;;30.60;54.40;;;;;;6241575;23;20020;-72
2023/06/11 12:30:24;;;;;;;5.10;4.75;;;30.60;54.50;;;;;;6242473;23;20012;-73
2023/06/11 12:32:50;;;;;;;5.25;4.57;;;30.70;54.80;;;;;;6216619;23;20004;-73
2023/06/11 12:35:15;;;;;;;5.07;4.60;;;30.70;54.70;;;;;;6242555;23;20321;-74
2023/06/11 12:37:42;;;;;;;9.25;4.30;;;30.70;54.20;;;;;;6243082;23;20001;-74
2023/06/11 12:40:08;;;;;;;5.03;4.60;;;30.70;53.00;;;;;;6243806;23;20071;-75